createdAt,value
2022-08-05T00:00:00.589Z,17.94
2022-08-05T00:01:00.846Z,17.94
2022-08-05T00:02:07.222Z,17.94
2022-08-05T00:03:00.243Z,17.83
2022-08-05T00:04:00.246Z,17.83
2022-08-05T00:05:00.242Z,17.83
2022-08-05T00:06:03.421Z,17.83
2022-08-05T00:07:00.246Z,17.83
2022-08-05T00:08:01.529Z,17.5
2022-08-05T00:09:00.266Z,17.5
2022-08-05T00:10:00.247Z,17.5
2022-08-05T00:11:01.269Z,17.83
2022-08-05T00:12:00.241Z,17.67
2022-08-05T00:13:00.239Z,17.56
2022-08-05T00:14:00.243Z,17.5
2022-08-05T00:15:00.243Z,17.5
2022-08-05T00:16:00.545Z,17.5
2022-08-05T00:17:01.774Z,17.5
2022-08-05T00:18:00.751Z,17.67
2022-08-05T00:19:00.247Z,17.5
2022-08-05T00:20:02.324Z,17.17
2022-08-05T00:21:00.247Z,17.33
2022-08-05T00:22:00.268Z,17.5
2022-08-05T00:23:02.669Z,17.5
2022-08-05T00:24:10.189Z,17.5
2022-08-05T00:25:00.251Z,17.5
2022-08-05T00:26:00.244Z,17.5
2022-08-05T00:27:00.245Z,17.5
2022-08-05T00:28:00.251Z,17.17
2022-08-05T00:29:00.250Z,17.5
2022-08-05T00:30:00.382Z,17.5
2022-08-05T00:31:02.967Z,17.17
2022-08-05T00:32:10.720Z,17.33
2022-08-05T00:33:00.258Z,17.5
2022-08-05T00:34:42.755Z,17.5
2022-08-05T00:35:05.907Z,17.5
2022-08-05T00:36:15.295Z,17.5
2022-08-05T00:37:09.493Z,17.5
2022-08-05T00:38:00.250Z,17.5
2022-08-05T00:39:00.277Z,17.5
2022-08-05T00:40:00.340Z,17.17
2022-08-05T00:41:00.248Z,17.5
2022-08-05T00:42:00.248Z,17.5
2022-08-05T00:43:00.261Z,17.33
2022-08-05T00:44:00.264Z,17.33
2022-08-05T00:45:00.260Z,17.33
2022-08-05T00:46:00.249Z,17
2022-08-05T00:47:01.701Z,17
2022-08-05T00:48:05.837Z,17
2022-08-05T00:49:00.247Z,17
2022-08-05T00:50:00.256Z,17
2022-08-05T00:51:00.257Z,16.89
2022-08-05T00:52:00.262Z,17
2022-08-05T00:53:00.250Z,16.56
2022-08-05T00:54:02.883Z,17.17
2022-08-05T00:55:00.257Z,17
2022-08-05T00:56:00.276Z,16.89
2022-08-05T00:57:00.252Z,17
2022-08-05T00:58:00.251Z,17.33
2022-08-05T00:59:00.428Z,16.56
2022-08-05T01:00:00.249Z,17
2022-08-05T01:01:00.329Z,17
2022-08-05T01:02:00.310Z,17
2022-08-05T01:03:00.251Z,16.89
2022-08-05T01:04:00.255Z,17
2022-08-05T01:05:00.257Z,17
2022-08-05T01:06:00.253Z,17
2022-08-05T01:07:00.263Z,17
2022-08-05T01:08:30.871Z,16.89
2022-08-05T01:09:00.253Z,16.89
2022-08-05T01:10:00.257Z,16.89
2022-08-05T01:11:00.267Z,16.72
2022-08-05T01:12:04.627Z,16.72
2022-08-05T01:13:05.458Z,17
2022-08-05T01:14:00.272Z,16.89
2022-08-05T01:15:00.259Z,16.89
2022-08-05T01:16:00.254Z,16.89
2022-08-05T01:17:00.262Z,16.39
2022-08-05T01:18:00.256Z,16.89
2022-08-05T01:19:00.717Z,16.72
2022-08-05T01:20:02.606Z,16.72
2022-08-05T01:21:00.258Z,16.56
2022-08-05T01:22:00.252Z,16.56
2022-08-05T01:23:00.251Z,16.72
2022-08-05T01:24:00.263Z,16.56
2022-08-05T01:25:00.257Z,16.56
2022-08-05T01:26:00.258Z,16.56
2022-08-05T01:27:00.263Z,16.56
2022-08-05T01:28:00.469Z,16.22
2022-08-05T01:29:00.638Z,16.72
2022-08-05T01:30:00.259Z,16.89
2022-08-05T01:31:00.258Z,16.56
2022-08-05T01:32:00.251Z,16.72
2022-08-05T01:33:00.259Z,16.89
2022-08-05T01:34:00.257Z,16.56
2022-08-05T01:35:00.262Z,16.89
2022-08-05T01:36:00.256Z,16.72
2022-08-05T01:37:00.480Z,16.89
2022-08-05T01:38:00.256Z,16.89
2022-08-05T01:39:01.254Z,16.89
2022-08-05T01:40:00.300Z,16.72
2022-08-05T01:41:01.420Z,16.56
2022-08-05T01:42:00.256Z,16.72
2022-08-05T01:43:00.263Z,16.89
2022-08-05T01:44:00.265Z,16.89
2022-08-05T01:45:00.259Z,17
2022-08-05T01:46:07.057Z,16.39
2022-08-05T01:47:00.265Z,16.56
2022-08-05T01:48:00.254Z,16.56
2022-08-05T01:49:00.266Z,16.56
2022-08-05T01:50:02.373Z,16.56
2022-08-05T01:51:00.267Z,16.39
2022-08-05T01:52:00.266Z,16.39
2022-08-05T01:53:00.262Z,16.39
2022-08-05T01:54:00.265Z,16.56
2022-08-05T01:55:00.564Z,16.56
2022-08-05T01:56:00.271Z,16.72
2022-08-05T01:58:08.375Z,16.72
2022-08-05T01:58:08.913Z,16.39
2022-08-05T01:59:00.267Z,16.56
2022-08-05T02:00:00.282Z,16.22
2022-08-05T02:01:00.271Z,16.56
2022-08-05T02:02:00.323Z,16.22
2022-08-05T02:03:00.281Z,16.56
2022-08-05T02:04:00.280Z,16.89
2022-08-05T02:05:00.283Z,16.89
2022-08-05T02:06:01.114Z,16.89
2022-08-05T02:07:00.281Z,17
2022-08-05T02:08:01.762Z,16.89
2022-08-05T02:09:00.282Z,16.89
2022-08-05T02:10:00.490Z,17
2022-08-05T02:11:00.288Z,17
2022-08-05T02:12:00.287Z,16.56
2022-08-05T02:13:00.286Z,16.56
2022-08-05T02:14:00.275Z,16.39
2022-08-05T02:15:00.281Z,16.56
2022-08-05T02:16:00.285Z,16.72
2022-08-05T02:17:00.285Z,16.56
2022-08-05T02:18:28.951Z,16.56
2022-08-05T02:19:00.281Z,16.56
2022-08-05T02:20:00.290Z,16.72
2022-08-05T02:21:00.289Z,16.72
2022-08-05T02:22:00.284Z,16.56
2022-08-05T02:23:00.281Z,16.56
2022-08-05T02:24:00.284Z,16.56
2022-08-05T02:25:00.420Z,16.56
2022-08-05T02:26:00.287Z,16.56
2022-08-05T02:27:00.288Z,16.56
2022-08-05T02:28:00.648Z,16.22
2022-08-05T02:29:00.287Z,16.22
2022-08-05T02:30:00.849Z,16.06
2022-08-05T02:31:00.297Z,16.06
2022-08-05T02:32:00.294Z,16.06
2022-08-05T02:33:00.291Z,15.89
2022-08-05T02:34:00.290Z,15.89
2022-08-05T02:35:00.537Z,15.61
2022-08-05T02:36:01.231Z,15.78
2022-08-05T02:37:00.287Z,15.89
2022-08-05T02:38:00.409Z,15.78
2022-08-05T02:39:00.462Z,16.06
2022-08-05T02:40:00.289Z,15.89
2022-08-05T02:41:00.286Z,15.78
2022-08-05T02:42:01.390Z,15.89
2022-08-05T02:43:00.287Z,15.78
2022-08-05T02:44:02.179Z,15.44
2022-08-05T02:45:00.290Z,16.06
2022-08-05T02:46:00.940Z,15.78
2022-08-05T02:47:01.149Z,15.78
2022-08-05T02:48:07.209Z,15.44
2022-08-05T02:49:00.302Z,15.78
2022-08-05T02:50:00.290Z,15.89
2022-08-05T02:51:00.297Z,15.78
2022-08-05T02:52:01.259Z,15.78
2022-08-05T02:53:00.289Z,15.89
2022-08-05T02:54:04.119Z,16.06
2022-08-05T02:55:01.627Z,16.06
2022-08-05T02:56:02.001Z,15.89
2022-08-05T02:57:00.288Z,16.06
2022-08-05T02:58:08.882Z,15.89
2022-08-05T02:59:00.291Z,16.22
2022-08-05T03:00:00.302Z,16.06
2022-08-05T03:01:00.502Z,16.06
2022-08-05T03:02:00.346Z,16.06
2022-08-05T03:03:00.311Z,16.06
2022-08-05T03:04:02.320Z,16.06
2022-08-05T03:05:00.295Z,16.22
2022-08-05T03:06:53.486Z,16.22
2022-08-05T03:07:00.384Z,16.06
2022-08-05T03:08:07.255Z,16.06
2022-08-05T03:09:00.303Z,16.06
2022-08-05T03:10:00.301Z,16.22
2022-08-05T03:11:01.210Z,16.22
2022-08-05T03:12:00.309Z,16.39
2022-08-05T03:14:03.005Z,16.06
2022-08-05T03:15:00.298Z,16.06
2022-08-05T03:16:00.309Z,16.06
2022-08-05T03:17:00.305Z,16.39
2022-08-05T03:18:00.312Z,16.22
2022-08-05T03:19:00.310Z,15.89
2022-08-05T03:20:00.301Z,16.22
2022-08-05T03:21:00.307Z,16.22
2022-08-05T03:22:00.313Z,16.39
2022-08-05T03:23:00.308Z,15.89
2022-08-05T03:24:00.312Z,16.06
2022-08-05T03:25:02.194Z,16.06
2022-08-05T03:26:05.178Z,15.89
2022-08-05T03:27:00.320Z,15.78
2022-08-05T03:28:00.636Z,15.78
2022-08-05T03:29:00.317Z,15.78
2022-08-05T03:30:07.965Z,15.61
2022-08-05T03:31:00.315Z,15.44
2022-08-05T03:32:00.718Z,16.06
2022-08-05T03:33:00.310Z,16.06
2022-08-05T03:34:00.311Z,15.89
2022-08-05T03:35:00.713Z,16.06
2022-08-05T03:36:00.309Z,16.22
2022-08-05T03:37:00.310Z,16.22
2022-08-05T03:38:00.319Z,16.06
2022-08-05T03:39:00.343Z,16.06
2022-08-05T03:40:01.364Z,16.06
2022-08-05T03:41:00.312Z,15.78
2022-08-05T03:42:00.309Z,15.61
2022-08-05T03:43:01.603Z,15.61
2022-08-05T03:44:10.081Z,15.78
2022-08-05T03:45:01.688Z,15.61
2022-08-05T03:46:00.314Z,15.61
2022-08-05T03:47:00.317Z,15.61
2022-08-05T03:48:00.315Z,15.44
2022-08-05T03:49:01.745Z,15.44
2022-08-05T03:50:00.307Z,15.61
2022-08-05T03:52:35.946Z,15.61
2022-08-05T03:52:36.131Z,15.61
2022-08-05T03:54:59.843Z,15.61
2022-08-05T03:54:59.942Z,15.78
2022-08-05T03:55:54.268Z,15.78
2022-08-05T03:56:06.471Z,15.78
2022-08-05T03:57:00.316Z,15.61
2022-08-05T03:58:00.308Z,15.61
2022-08-05T03:59:00.322Z,15.61
2022-08-05T04:00:00.311Z,15.61
2022-08-05T04:01:00.396Z,15.78
2022-08-05T04:02:00.337Z,15.89
2022-08-05T04:03:00.323Z,15.61
2022-08-05T04:04:05.412Z,16.06
2022-08-05T04:05:00.322Z,16.06
2022-08-05T04:06:00.319Z,15.78
2022-08-05T04:07:00.335Z,16.06
2022-08-05T04:08:00.318Z,16.06
2022-08-05T04:09:00.322Z,15.89
2022-08-05T04:10:01.608Z,16.06
2022-08-05T04:11:00.316Z,16.06
2022-08-05T04:12:00.324Z,16.22
2022-08-05T04:13:00.323Z,16.39
2022-08-05T04:14:00.321Z,16.22
2022-08-05T04:15:00.329Z,16.22
2022-08-05T04:16:02.794Z,16.22
2022-08-05T04:17:00.431Z,16.39
2022-08-05T04:18:00.324Z,16.39
2022-08-05T04:19:00.412Z,16.22
2022-08-05T04:20:00.320Z,16.22
2022-08-05T04:21:00.332Z,16.39
2022-08-05T04:22:05.469Z,16.39
2022-08-05T04:23:00.324Z,16.39
2022-08-05T04:24:06.118Z,16.39
2022-08-05T04:25:00.678Z,16.56
2022-08-05T04:26:00.993Z,16.56
2022-08-05T04:27:00.324Z,16.39
2022-08-05T04:28:02.732Z,16.56
2022-08-05T04:29:00.330Z,16.89
2022-08-05T04:30:03.495Z,16.72
2022-08-05T04:31:00.922Z,16.39
2022-08-05T04:32:00.318Z,16.39
2022-08-05T04:33:00.327Z,16.72
2022-08-05T04:34:19.595Z,17
2022-08-05T04:35:00.329Z,17
2022-08-05T04:36:09.393Z,17
2022-08-05T04:37:00.670Z,17.17
2022-08-05T04:38:00.831Z,17.17
2022-08-05T04:39:00.356Z,17.33
2022-08-05T04:40:00.331Z,17.33
2022-08-05T04:41:00.332Z,17.5
2022-08-05T04:42:00.326Z,17.33
2022-08-05T04:43:00.329Z,17
2022-08-05T04:44:00.334Z,17.5
2022-08-05T04:45:00.922Z,17.5
2022-08-05T04:46:00.327Z,17.5
2022-08-05T04:47:08.677Z,17.5
2022-08-05T04:48:00.341Z,17.17
2022-08-05T04:49:00.324Z,17
2022-08-05T04:50:01.267Z,17
2022-08-05T04:51:02.234Z,16.56
2022-08-05T04:52:00.759Z,16.56
2022-08-05T04:53:00.335Z,16.39
2022-08-05T04:54:01.301Z,16.22
2022-08-05T04:55:00.359Z,16.39
2022-08-05T04:56:05.109Z,16.56
2022-08-05T04:57:00.352Z,16.39
2022-08-05T04:58:00.328Z,16.39
2022-08-05T04:59:00.324Z,16.22
2022-08-05T05:00:00.343Z,16.56
2022-08-05T05:01:00.386Z,16.56
2022-08-05T05:02:08.590Z,16.56
2022-08-05T05:03:03.219Z,16.56
2022-08-05T05:04:00.337Z,16.56
2022-08-05T05:05:02.102Z,16.56
2022-08-05T05:06:36.254Z,16.89
2022-08-05T05:07:00.332Z,16.72
2022-08-05T05:08:00.987Z,16.72
2022-08-05T05:09:00.655Z,16.89
2022-08-05T05:10:02.080Z,16.89
2022-08-05T05:11:00.339Z,17
2022-08-05T05:12:02.037Z,16.89
2022-08-05T05:13:00.344Z,17
2022-08-05T05:14:00.333Z,17
2022-08-05T05:15:03.622Z,17
2022-08-05T05:16:02.420Z,17.17
2022-08-05T05:17:00.392Z,17.33
2022-08-05T05:18:00.471Z,17.33
2022-08-05T05:19:18.037Z,17.5
2022-08-05T05:20:00.330Z,17.5
2022-08-05T05:21:00.449Z,17.83
2022-08-05T05:22:03.536Z,18.78
2022-08-05T05:23:03.190Z,19.78
2022-08-05T05:24:02.622Z,20.22
2022-08-05T05:25:01.376Z,21
2022-08-05T05:26:00.346Z,21.39
2022-08-05T05:27:00.342Z,22.39
2022-08-05T05:28:00.337Z,22.94
2022-08-05T05:29:00.340Z,22.78
2022-08-05T05:30:03.690Z,23.83
2022-08-05T05:31:00.343Z,24
2022-08-05T05:32:00.343Z,24
2022-08-05T05:33:03.675Z,24
2022-08-05T05:34:01.817Z,23.44
2022-08-05T05:35:00.342Z,23.44
2022-08-05T05:36:00.344Z,22.78
2022-08-05T05:37:00.345Z,22.06
2022-08-05T05:38:01.935Z,21.72
2022-08-05T05:39:00.461Z,22.22
2022-08-05T05:40:00.329Z,22.39
2022-08-05T05:41:00.346Z,22.56
2022-08-05T05:42:00.339Z,23.44
2022-08-05T05:43:00.343Z,24
2022-08-05T05:44:00.845Z,24.39
2022-08-05T05:45:00.342Z,24.56
2022-08-05T05:46:00.340Z,24.17
2022-08-05T05:47:04.135Z,24.56
2022-08-05T05:48:05.885Z,24.56
2022-08-05T05:49:00.335Z,24.17
2022-08-05T05:50:01.374Z,24.56
2022-08-05T05:51:00.341Z,25.06
2022-08-05T05:52:00.337Z,25.22
2022-08-05T05:53:00.350Z,25.22
2022-08-05T05:54:00.351Z,25.22
2022-08-05T05:55:00.344Z,25.61
2022-08-05T05:56:01.460Z,25.61
2022-08-05T05:57:00.343Z,25.61
2022-08-05T05:58:01.923Z,25.61
2022-08-05T05:59:03.034Z,26.17
2022-08-05T06:00:00.358Z,26.06
2022-08-05T06:01:02.663Z,26.17
2022-08-05T06:02:00.343Z,26.56
2022-08-05T06:03:00.348Z,26.33
2022-08-05T06:04:02.265Z,26.06
2022-08-05T06:05:00.407Z,26.33
2022-08-05T06:06:00.350Z,26.17
2022-08-05T06:07:01.510Z,26.06
2022-08-05T06:08:01.637Z,25.78
2022-08-05T06:09:00.355Z,26.72
2022-08-05T06:10:03.463Z,26.72
2022-08-05T06:11:00.354Z,27
2022-08-05T06:12:02.211Z,26.72
2022-08-05T06:13:00.386Z,25.06
2022-08-05T06:14:00.627Z,24.56
2022-08-05T06:15:00.345Z,24
2022-08-05T06:16:28.143Z,23.44
2022-08-05T06:17:01.838Z,23.44
2022-08-05T06:18:00.351Z,23.44
2022-08-05T06:19:01.015Z,24
2022-08-05T06:20:00.355Z,24.89
2022-08-05T06:21:00.382Z,25.61
2022-08-05T06:22:00.357Z,24.39
2022-08-05T06:23:00.346Z,24
2022-08-05T06:24:00.348Z,23.83
2022-08-05T06:25:00.361Z,24.56
2022-08-05T06:26:13.112Z,24.39
2022-08-05T06:27:00.344Z,24.39
2022-08-05T06:28:09.866Z,24.17
2022-08-05T06:29:03.251Z,24
2022-08-05T06:30:04.072Z,24
2022-08-05T06:31:00.348Z,24.17
2022-08-05T06:32:00.359Z,25.06
2022-08-05T06:33:00.355Z,25.44
2022-08-05T06:34:05.899Z,25.06
2022-08-05T06:35:00.348Z,25.61
2022-08-05T06:36:03.230Z,26.17
2022-08-05T06:37:00.348Z,25.44
2022-08-05T06:38:03.136Z,24.56
2022-08-05T06:39:00.377Z,25.06
2022-08-05T06:40:00.356Z,26.33
2022-08-05T06:41:00.348Z,28
2022-08-05T06:42:00.342Z,28
2022-08-05T06:43:00.356Z,26.72
2022-08-05T06:44:00.703Z,26.56
2022-08-05T06:45:00.360Z,25.06
2022-08-05T06:46:04.424Z,25.22
2022-08-05T06:47:02.152Z,26.17
2022-08-05T06:48:12.300Z,26.72
2022-08-05T06:49:00.945Z,26.72
2022-08-05T06:50:05.232Z,25.78
2022-08-05T06:51:00.432Z,26.17
2022-08-05T06:52:00.361Z,26.56
2022-08-05T06:53:04.135Z,26.17
2022-08-05T06:54:00.358Z,27.78
2022-08-05T06:55:00.355Z,28.39
2022-08-05T06:56:00.375Z,28
2022-08-05T06:57:14.115Z,29
2022-08-05T06:58:03.642Z,28.39
2022-08-05T06:59:00.360Z,26.72
2022-08-05T07:00:00.357Z,26.06
2022-08-05T07:01:00.382Z,26.56
2022-08-05T07:02:00.363Z,27.22
2022-08-05T07:03:00.356Z,26.72
2022-08-05T07:04:00.351Z,26.72
2022-08-05T07:05:00.369Z,27.22
2022-08-05T07:06:00.359Z,27.56
2022-08-05T07:07:00.359Z,27.78
2022-08-05T07:08:00.359Z,29
2022-08-05T07:09:00.351Z,28.78
2022-08-05T07:10:00.350Z,29.61
2022-08-05T07:11:00.363Z,29.78
2022-08-05T07:12:00.739Z,29.78
2022-08-05T07:13:00.357Z,29.61
2022-08-05T07:14:00.364Z,29.61
2022-08-05T07:15:00.365Z,29
2022-08-05T07:16:01.355Z,28.78
2022-08-05T07:17:57.776Z,29.39
2022-08-05T07:18:06.995Z,30.22
2022-08-05T07:19:00.350Z,28.78
2022-08-05T07:21:04.613Z,29.61
2022-08-05T07:22:01.377Z,29.61
2022-08-05T07:23:00.353Z,30.22
2022-08-05T07:24:01.199Z,30
2022-08-05T07:25:09.632Z,30.22
2022-08-05T07:26:00.364Z,29.61
2022-08-05T07:27:00.362Z,30.22
2022-08-05T07:28:04.045Z,30.83
2022-08-05T07:29:00.364Z,30.61
2022-08-05T07:30:22.571Z,29.78
2022-08-05T07:31:00.355Z,29.61
2022-08-05T07:32:00.363Z,30.39
2022-08-05T07:33:00.358Z,31.22
2022-08-05T07:34:00.361Z,31.44
2022-08-05T07:35:00.360Z,29
2022-08-05T07:36:05.503Z,26.72
2022-08-05T07:37:00.363Z,26.89
2022-08-05T07:38:00.361Z,27.44
2022-08-05T07:39:00.406Z,26.72
2022-08-05T07:40:04.914Z,26.56
2022-08-05T07:41:04.737Z,26.72
2022-08-05T07:42:10.040Z,26.89
2022-08-05T07:43:02.291Z,28
2022-08-05T07:44:00.363Z,27.22
2022-08-05T07:45:00.452Z,26.17
2022-08-05T07:46:00.367Z,25.61
2022-08-05T07:47:00.363Z,25.61
2022-08-05T07:48:00.361Z,25.06
2022-08-05T07:49:04.761Z,24.89
2022-08-05T07:50:00.358Z,23.83
2022-08-05T07:51:00.366Z,23.83
2022-08-05T07:52:00.366Z,24
2022-08-05T07:53:00.358Z,24.17
2022-08-05T07:54:01.872Z,24.89
2022-08-05T07:55:00.364Z,24.72
2022-08-05T07:56:05.944Z,24.17
2022-08-05T07:57:15.051Z,24.17
2022-08-05T07:58:02.925Z,24.56
2022-08-05T07:59:00.377Z,24.17
2022-08-05T08:00:00.386Z,24.39
2022-08-05T08:01:00.412Z,25.06
2022-08-05T08:02:00.390Z,24.56
2022-08-05T08:03:14.345Z,24
2022-08-05T08:04:00.366Z,24.61
2022-08-05T08:05:00.525Z,24
2022-08-05T08:06:00.365Z,24.5
2022-08-05T08:07:00.361Z,25.06
2022-08-05T08:08:00.770Z,24.67
2022-08-05T08:09:00.366Z,24.5
2022-08-05T08:10:00.364Z,24.5
2022-08-05T08:11:00.362Z,24.89
2022-08-05T08:12:06.367Z,24.67
2022-08-05T08:13:00.642Z,24.89
2022-08-05T08:14:00.573Z,24.67
2022-08-05T08:15:02.363Z,24.89
2022-08-05T08:16:36.008Z,24.67
2022-08-05T08:17:00.364Z,25.06
2022-08-05T08:18:01.783Z,25.06
2022-08-05T08:19:00.367Z,25.22
2022-08-05T08:20:23.075Z,25.22
2022-08-05T08:21:03.313Z,25.22
2022-08-05T08:22:00.360Z,25.22
2022-08-05T08:23:03.205Z,25.78
2022-08-05T08:24:04.808Z,26.17
2022-08-05T08:25:02.966Z,26.17
2022-08-05T08:26:02.579Z,26.89
2022-08-05T08:27:00.366Z,27.17
2022-08-05T08:28:00.368Z,26.89
2022-08-05T08:29:02.459Z,27.56
2022-08-05T08:30:04.824Z,26.94
2022-08-05T08:31:00.358Z,27.78
2022-08-05T08:32:00.366Z,28
2022-08-05T08:33:02.789Z,27.44
2022-08-05T08:34:00.369Z,26.94
2022-08-05T08:35:00.381Z,26.56
2022-08-05T08:36:18.695Z,26.33
2022-08-05T08:37:03.170Z,26.89
2022-08-05T08:38:00.360Z,27.44
2022-08-05T08:39:01.574Z,27.44
2022-08-05T08:40:00.427Z,27.17
2022-08-05T08:41:00.360Z,26.33
2022-08-05T08:42:02.170Z,25.78
2022-08-05T08:43:21.104Z,25.78
2022-08-05T08:45:17.465Z,25.78
2022-08-05T08:45:17.558Z,25.78
2022-08-05T08:46:00.367Z,26.17
2022-08-05T08:47:00.366Z,26.56
2022-08-05T08:48:07.846Z,26.17
2022-08-05T08:50:03.758Z,26.17
2022-08-05T08:50:08.064Z,26.17
2022-08-05T08:51:04.305Z,26.17
2022-08-05T08:52:02.743Z,26.56
2022-08-05T08:53:00.370Z,26.56
2022-08-05T08:54:00.367Z,26.89
2022-08-05T08:55:00.369Z,27.44
2022-08-05T08:56:02.244Z,27.17
2022-08-05T08:57:00.372Z,27.56
2022-08-05T08:58:00.366Z,27.17
2022-08-05T08:59:00.365Z,26.56
2022-08-05T09:00:00.382Z,26.89
2022-08-05T09:01:00.447Z,26.72
2022-08-05T09:02:01.005Z,26.56
2022-08-05T09:03:00.364Z,26.89
2022-08-05T09:04:00.374Z,26.89
2022-08-05T09:05:17.156Z,28
2022-08-05T09:06:08.219Z,28
2022-08-05T09:07:00.379Z,28.72
2022-08-05T09:08:00.366Z,28.61
2022-08-05T09:09:00.371Z,29.72
2022-08-05T09:10:00.383Z,29.72
2022-08-05T09:11:00.373Z,30.17
2022-08-05T09:12:06.002Z,30.39
2022-08-05T09:13:04.773Z,30.39
2022-08-05T09:14:01.422Z,29.11
2022-08-05T09:15:05.896Z,29.56
2022-08-05T09:16:00.363Z,29.11
2022-08-05T09:17:00.368Z,29.11
2022-08-05T09:18:00.367Z,30.39
2022-08-05T09:19:00.373Z,30.17
2022-08-05T09:20:02.057Z,30.39
2022-08-05T09:21:00.368Z,30.17
2022-08-05T09:22:13.770Z,30.39
2022-08-05T09:23:04.962Z,30.39
2022-08-05T09:24:02.404Z,30.61
2022-08-05T09:25:00.372Z,31
2022-08-05T09:26:06.384Z,30.78
2022-08-05T09:27:00.369Z,30.78
2022-08-05T09:28:03.537Z,30.78
2022-08-05T09:29:00.366Z,30.61
2022-08-05T09:30:03.389Z,31
2022-08-05T09:31:00.372Z,30.78
2022-08-05T09:32:40.528Z,31
2022-08-05T09:33:00.361Z,31.61
2022-08-05T09:34:00.374Z,31
2022-08-05T09:35:00.372Z,30.78
2022-08-05T09:36:02.659Z,31
2022-08-05T09:37:00.363Z,31
2022-08-05T09:38:13.132Z,30.78
2022-08-05T09:39:00.419Z,30.39
2022-08-05T09:40:00.472Z,31
2022-08-05T09:41:00.376Z,31
2022-08-05T09:42:00.374Z,30.61
2022-08-05T09:43:00.369Z,29.72
2022-08-05T09:44:00.374Z,29.22
2022-08-05T09:45:03.587Z,29.17
2022-08-05T09:46:05.465Z,28.72
2022-08-05T09:47:00.375Z,29.33
2022-08-05T09:48:00.379Z,29.72
2022-08-05T09:49:07.403Z,29.94
2022-08-05T09:50:01.897Z,29.72
2022-08-05T09:51:00.452Z,29.94
2022-08-05T09:52:00.376Z,29.72
2022-08-05T09:53:00.371Z,29.5
2022-08-05T09:54:00.602Z,29.94
2022-08-05T09:55:00.391Z,29.94
2022-08-05T09:56:04.081Z,29.33
2022-08-05T09:57:01.144Z,28.72
2022-08-05T09:58:00.415Z,29.17
2022-08-05T09:59:00.409Z,28.94
2022-08-05T10:00:02.701Z,28.56
2022-08-05T10:01:00.385Z,28.72
2022-08-05T10:02:00.383Z,29.17
2022-08-05T10:03:00.426Z,28.94
2022-08-05T10:04:00.610Z,28.72
2022-08-05T10:05:00.410Z,28.11
2022-08-05T10:06:02.697Z,27.5
2022-08-05T10:07:01.450Z,27.72
2022-08-05T10:08:11.553Z,27.94
2022-08-05T10:09:00.382Z,28.11
2022-08-05T10:10:04.125Z,27.5
2022-08-05T10:11:00.390Z,28.11
2022-08-05T10:12:02.835Z,28.11
2022-08-05T10:13:00.385Z,28.72
2022-08-05T10:14:00.392Z,28.72
2022-08-05T10:15:00.390Z,28.72
2022-08-05T10:16:00.398Z,29.17
2022-08-05T10:17:00.393Z,29.5
2022-08-05T10:18:00.388Z,29.94
2022-08-05T10:19:00.401Z,30.17
2022-08-05T10:20:03.490Z,30.17
2022-08-05T10:21:01.736Z,29.17
2022-08-05T10:22:00.391Z,28.72
2022-08-05T10:23:00.387Z,28.94
2022-08-05T10:24:01.008Z,29.5
2022-08-05T10:25:00.388Z,29.33
2022-08-05T10:26:00.399Z,28.56
2022-08-05T10:27:01.203Z,28.33
2022-08-05T10:28:10.019Z,28.72
2022-08-05T10:29:00.514Z,29.33
2022-08-05T10:30:06.169Z,29.5
2022-08-05T10:32:47.015Z,29.94
2022-08-05T10:32:49.877Z,29.94
2022-08-05T10:33:02.388Z,29.94
2022-08-05T10:34:00.399Z,29.94
2022-08-05T10:35:00.774Z,30.56
2022-08-05T10:36:00.389Z,30.56
2022-08-05T10:37:00.393Z,30.33
2022-08-05T10:38:00.392Z,29.94
2022-08-05T10:39:00.437Z,29.94
2022-08-05T10:40:04.353Z,29.72
2022-08-05T10:41:00.486Z,29.5
2022-08-05T10:42:01.125Z,29.33
2022-08-05T10:43:00.390Z,29.33
2022-08-05T10:44:00.392Z,29.5
2022-08-05T10:45:00.394Z,29.5
2022-08-05T10:46:06.158Z,29.94
2022-08-05T10:47:00.396Z,29.72
2022-08-05T10:48:30.449Z,29.94
2022-08-05T10:49:02.807Z,29.94
2022-08-05T10:50:08.487Z,29.94
2022-08-05T10:51:00.389Z,30.33
2022-08-05T10:52:02.440Z,29.94
2022-08-05T10:53:00.421Z,29.94
2022-08-05T10:54:01.147Z,29.5
2022-08-05T10:55:00.397Z,29.72
2022-08-05T10:56:03.239Z,30.33
2022-08-05T10:57:00.394Z,30.56
2022-08-05T10:58:00.398Z,30.94
2022-08-05T10:59:07.030Z,30.94
2022-08-05T11:00:01.720Z,30.56
2022-08-05T11:01:02.721Z,30.17
2022-08-05T11:02:04.858Z,30.56
2022-08-05T11:03:24.056Z,30.17
2022-08-05T11:04:00.415Z,30.56
2022-08-05T11:05:00.425Z,30.94
2022-08-05T11:06:00.393Z,32.22
2022-08-05T11:07:00.391Z,31.17
2022-08-05T11:08:01.677Z,31.17
2022-08-05T11:09:00.389Z,30.78
2022-08-05T11:10:03.595Z,29.94
2022-08-05T11:11:00.849Z,30.17
2022-08-05T11:12:00.401Z,30.56
2022-08-05T11:13:01.211Z,30.94
2022-08-05T11:14:00.394Z,30.78
2022-08-05T11:15:01.624Z,30.56
2022-08-05T11:16:01.969Z,30.56
2022-08-05T11:17:08.097Z,30.56
2022-08-05T11:18:03.787Z,30.56
2022-08-05T11:19:00.389Z,30.33
2022-08-05T11:20:09.520Z,30.56
2022-08-05T11:21:00.397Z,30.56
2022-08-05T11:22:00.399Z,30.56
2022-08-05T11:23:02.217Z,30.56
2022-08-05T11:24:03.519Z,30.56
2022-08-05T11:25:16.674Z,30.56
2022-08-05T11:26:04.019Z,30.56
2022-08-05T11:27:00.396Z,30.67
2022-08-05T11:28:00.621Z,30.44
2022-08-05T11:29:07.058Z,30.72
2022-08-05T11:30:00.402Z,30.72
2022-08-05T11:31:00.399Z,30.72
2022-08-05T11:32:00.481Z,30.72
2022-08-05T11:33:00.400Z,30.5
2022-08-05T11:34:00.392Z,30.5
2022-08-05T11:35:00.405Z,31.11
2022-08-05T11:36:04.533Z,30.72
2022-08-05T11:37:00.399Z,30.28
2022-08-05T11:38:27.148Z,31.33
2022-08-05T11:39:00.499Z,31.33
2022-08-05T11:40:03.736Z,31.5
2022-08-05T11:41:03.799Z,31.94
2022-08-05T11:42:01.134Z,31.94
2022-08-05T11:43:00.403Z,31.72
2022-08-05T11:44:06.897Z,31.33
2022-08-05T11:45:00.395Z,31.33
2022-08-05T11:46:14.818Z,31.33
2022-08-05T11:47:10.063Z,31.33
2022-08-05T11:48:00.400Z,31.72
2022-08-05T11:49:00.391Z,31.33
2022-08-05T11:50:00.389Z,31.5
2022-08-05T11:51:00.397Z,32.17
2022-08-05T11:52:00.400Z,32.61
2022-08-05T11:53:00.397Z,32.61
2022-08-05T11:54:00.404Z,32.61
2022-08-05T11:55:07.221Z,33.28
2022-08-05T11:56:00.405Z,33
2022-08-05T11:57:00.405Z,32.78
2022-08-05T11:58:08.985Z,33.28
2022-08-05T11:59:00.407Z,33
2022-08-05T12:00:00.409Z,32.78
2022-08-05T12:01:00.404Z,32.61
2022-08-05T12:02:00.399Z,31.94
2022-08-05T12:03:00.430Z,31.5
2022-08-05T12:04:00.399Z,31.5
2022-08-05T12:05:00.653Z,31.94
2022-08-05T12:06:00.404Z,31.5
2022-08-05T12:07:00.405Z,31.33
2022-08-05T12:08:03.899Z,31.11
2022-08-05T12:09:00.405Z,31.11
2022-08-05T12:10:04.471Z,31.33
2022-08-05T12:11:00.404Z,30.89
2022-08-05T12:12:00.404Z,30.72
2022-08-05T12:13:00.538Z,31.11
2022-08-05T12:14:04.221Z,31.94
2022-08-05T12:15:00.401Z,31.11
2022-08-05T12:16:00.400Z,31.33
2022-08-05T12:17:00.396Z,30.5
2022-08-05T12:18:03.443Z,30.5
2022-08-05T12:19:00.408Z,30.72
2022-08-05T12:20:17.329Z,30.28
2022-08-05T12:21:00.404Z,30.72
2022-08-05T12:22:01.091Z,30.72
2022-08-05T12:23:00.401Z,30.28
2022-08-05T12:24:04.299Z,30.72
2022-08-05T12:25:00.403Z,30.72
2022-08-05T12:26:00.404Z,30.72
2022-08-05T12:27:00.410Z,30.72
2022-08-05T12:28:01.135Z,30.11
2022-08-05T12:29:01.429Z,30.28
2022-08-05T12:30:00.403Z,30.11
2022-08-05T12:31:02.142Z,29.5
2022-08-05T12:32:01.899Z,29.5
2022-08-05T12:33:07.096Z,29.11
2022-08-05T12:34:00.401Z,29.5
2022-08-05T12:35:00.398Z,29.5
2022-08-05T12:36:00.485Z,29.89
2022-08-05T12:37:00.406Z,29.89
2022-08-05T12:38:00.404Z,30.11
2022-08-05T12:39:00.438Z,30.5
2022-08-05T12:40:03.422Z,30.11
2022-08-05T12:41:00.404Z,29.72
2022-08-05T12:42:00.410Z,29.89
2022-08-05T12:43:00.409Z,29.89
2022-08-05T12:44:00.407Z,30.11
2022-08-05T12:45:00.409Z,30.5
2022-08-05T12:46:00.414Z,31.33
2022-08-05T12:47:00.413Z,31.5
2022-08-05T12:48:01.886Z,31.94
2022-08-05T12:49:00.409Z,31.72
2022-08-05T12:50:02.710Z,31.72
2022-08-05T12:51:00.400Z,31.11
2022-08-05T12:52:11.300Z,31.72
2022-08-05T12:53:00.435Z,32.17
2022-08-05T12:54:00.396Z,31.94
2022-08-05T12:55:00.405Z,31.33
2022-08-05T12:56:00.409Z,31.11
2022-08-05T12:57:00.424Z,30.72
2022-08-05T12:58:38.162Z,31.33
2022-08-05T12:59:02.608Z,31.33
2022-08-05T13:00:08.599Z,31.5
2022-08-05T13:01:58.716Z,31.94
2022-08-05T13:02:07.280Z,32.39
2022-08-05T13:03:00.531Z,32.61